createdAt,value
2022-11-16T00:01:20.599Z,11.45
2022-11-16T00:03:48.426Z,15.82
2022-11-16T00:06:15.733Z,10.63
2022-11-16T00:08:45.213Z,13.95
2022-11-16T00:11:19.066Z,13.82
2022-11-16T00:13:46.027Z,16.85
2022-11-16T00:16:17.555Z,14.40
2022-11-16T00:18:45.008Z,14.10
2022-11-16T00:21:11.812Z,14.27
2022-11-16T00:23:39.133Z,14.75
2022-11-16T00:26:12.171Z,16.92
2022-11-16T00:28:38.969Z,12.00
2022-11-16T00:31:07.242Z,12.73
2022-11-16T00:33:34.747Z,15.18
2022-11-16T00:36:03.113Z,13.05
2022-11-16T00:38:29.978Z,12.48
2022-11-16T00:40:56.966Z,13.20
2022-11-16T00:43:23.897Z,14.13
2022-11-16T00:45:50.717Z,12.20
2022-11-16T00:48:17.707Z,14.93
2022-11-16T00:50:45.605Z,16.35
2022-11-16T00:53:15.066Z,13.23
2022-11-16T00:55:43.391Z,15.18
2022-11-16T00:58:10.862Z,14.55
2022-11-16T01:00:38.495Z,14.43
2022-11-16T01:03:05.443Z,11.45
2022-11-16T01:05:32.240Z,13.15
2022-11-16T01:07:59.322Z,9.85
2022-11-16T01:10:27.299Z,16.10
2022-11-16T01:12:55.308Z,15.10
2022-11-16T01:15:24.253Z,12.07
2022-11-16T01:17:52.960Z,17.13
2022-11-16T01:20:24.577Z,14.77
2022-11-16T01:22:51.419Z,14.02
2022-11-16T01:25:18.738Z,18.00
2022-11-16T01:27:45.788Z,15.20
2022-11-16T01:30:14.673Z,13.05
2022-11-16T01:32:41.588Z,14.50
2022-11-16T01:35:09.761Z,16.15
2022-11-16T01:37:36.593Z,14.88
2022-11-16T01:40:03.981Z,15.25
2022-11-16T01:42:31.684Z,15.27
2022-11-16T01:45:03.417Z,14.05
2022-11-16T01:47:30.486Z,14.75
2022-11-16T01:50:08.978Z,15.90
2022-11-16T01:52:40.239Z,13.45
2022-11-16T01:55:07.643Z,14.60
2022-11-16T01:57:39.939Z,15.57
2022-11-16T02:00:09.622Z,23.77
2022-11-16T02:02:36.489Z,17.08
2022-11-16T02:05:04.571Z,13.73
2022-11-16T02:08:08.316Z,17.30
2022-11-16T02:10:54.120Z,15.98
2022-11-16T02:13:39.694Z,20.63
2022-11-16T02:16:21.815Z,20.77
2022-11-16T02:19:00.427Z,19.17
2022-11-16T02:21:32.253Z,18.77
2022-11-16T02:24:02.127Z,16.85
2022-11-16T02:26:31.627Z,21.27
2022-11-16T02:29:24.576Z,20.35
2022-11-16T02:32:13.040Z,20.30
2022-11-16T02:35:19.002Z,24.02
2022-11-16T02:38:07.177Z,23.45
2022-11-16T02:40:37.577Z,29.13
2022-11-16T02:43:15.584Z,24.55
2022-11-16T02:45:48.106Z,22.80
2022-11-16T02:48:21.487Z,22.45
2022-11-16T02:50:52.708Z,24.48
2022-11-16T02:53:24.387Z,24.63
2022-11-16T02:55:51.426Z,23.67
2022-11-16T02:58:21.445Z,28.65
2022-11-16T03:01:05.976Z,23.75
2022-11-16T03:03:57.241Z,24.20
2022-11-16T03:06:30.200Z,23.73
2022-11-16T03:09:14.337Z,22.92
2022-11-16T03:12:00.283Z,20.92
2022-11-16T03:14:34.141Z,23.83
2022-11-16T03:17:02.000Z,20.48
2022-11-16T03:19:49.085Z,20.63
2022-11-16T03:22:26.119Z,21.00
2022-11-16T03:24:53.231Z,23.42
2022-11-16T03:27:43.690Z,20.90
2022-11-16T03:30:23.759Z,22.10
2022-11-16T03:33:24.175Z,21.48
2022-11-16T03:36:24.154Z,23.48
2022-11-16T03:38:52.927Z,19.02
2022-11-16T03:41:22.163Z,21.05
2022-11-16T03:43:50.521Z,22.98
2022-11-16T03:46:18.122Z,23.15
2022-11-16T03:48:44.922Z,19.42
2022-11-16T03:51:12.593Z,23.25
2022-11-16T03:53:39.604Z,29.08
2022-11-16T03:56:06.647Z,24.45
2022-11-16T03:58:33.717Z,22.08
2022-11-16T04:01:00.903Z,20.33
2022-11-16T04:03:27.705Z,24.75
2022-11-16T04:06:13.019Z,20.90
2022-11-16T04:08:58.590Z,23.85
2022-11-16T04:11:44.025Z,30.13
2022-11-16T04:14:37.295Z,21.42
2022-11-16T04:17:22.791Z,24.67
2022-11-16T04:20:08.307Z,24.02
2022-11-16T04:23:01.493Z,22.63
2022-11-16T04:25:33.677Z,20.95
2022-11-16T04:28:16.447Z,22.05
2022-11-16T04:31:07.668Z,24.02
2022-11-16T04:33:53.280Z,22.23
2022-11-16T04:36:38.928Z,22.92
2022-11-16T04:39:06.141Z,22.75
2022-11-16T04:41:51.962Z,22.50
2022-11-16T04:44:19.009Z,24.45
2022-11-16T04:47:04.753Z,21.20
2022-11-16T04:49:31.859Z,21.35
2022-11-16T04:51:58.738Z,24.10
2022-11-16T04:54:25.610Z,21.65
2022-11-16T04:56:52.419Z,23.90
2022-11-16T04:59:19.233Z,21.33
2022-11-16T05:02:04.699Z,23.23
2022-11-16T05:04:31.592Z,25.92
2022-11-16T05:06:58.453Z,20.20
2022-11-16T05:09:25.336Z,25.05
2022-11-16T05:11:52.659Z,23.17
2022-11-16T05:14:19.480Z,22.13
2022-11-16T05:16:46.356Z,22.88
2022-11-16T05:19:31.734Z,22.38
2022-11-16T05:21:58.537Z,23.25
2022-11-16T05:24:34.354Z,26.52
2022-11-16T05:27:06.735Z,23.73
2022-11-16T05:29:34.149Z,24.25
2022-11-16T05:32:01.740Z,25.00
2022-11-16T05:34:28.715Z,23.90
2022-11-16T05:36:55.873Z,23.15
2022-11-16T05:39:23.233Z,26.90
2022-11-16T05:41:50.780Z,25.10
2022-11-16T05:44:17.792Z,24.40
2022-11-16T05:46:45.551Z,23.83
2022-11-16T05:49:13.427Z,23.00
2022-11-16T05:51:41.896Z,22.75
2022-11-16T05:54:08.708Z,22.70
2022-11-16T05:56:35.913Z,22.20
2022-11-16T05:59:02.938Z,24.88
2022-11-16T06:01:30.125Z,22.75
2022-11-16T06:04:00.419Z,24.15
2022-11-16T06:06:28.456Z,23.13
2022-11-16T06:08:55.448Z,25.25
2022-11-16T06:11:22.435Z,24.98
2022-11-16T06:13:49.366Z,24.13
2022-11-16T06:16:16.554Z,21.17
2022-11-16T06:18:45.498Z,29.02
2022-11-16T06:21:13.864Z,21.52
2022-11-16T06:23:41.137Z,26.13
2022-11-16T06:26:08.874Z,26.67
2022-11-16T06:28:36.534Z,21.95
2022-11-16T06:31:03.674Z,24.13
2022-11-16T06:33:33.529Z,25.77
2022-11-16T06:36:00.889Z,26.45
2022-11-16T06:38:28.187Z,21.88
2022-11-16T06:40:58.407Z,25.17
2022-11-16T06:43:25.944Z,27.60
2022-11-16T06:45:55.548Z,27.88
2022-11-16T06:48:22.946Z,28.70
2022-11-16T06:50:50.953Z,26.10
2022-11-16T06:53:20.356Z,25.58
2022-11-16T06:55:49.367Z,25.83
2022-11-16T06:58:16.369Z,27.52
2022-11-16T07:00:43.462Z,29.50
2022-11-16T07:03:10.623Z,29.40
2022-11-16T07:05:41.993Z,27.65
2022-11-16T07:08:09.092Z,26.40
2022-11-16T07:10:37.043Z,27.50
2022-11-16T07:13:04.658Z,23.77
2022-11-16T07:15:32.239Z,25.95
2022-11-16T07:18:04.796Z,18.48
2022-11-16T07:20:31.969Z,23.45
2022-11-16T07:23:03.327Z,20.52
2022-11-16T07:25:32.353Z,26.95
2022-11-16T07:27:59.358Z,14.50
2022-11-16T07:30:26.836Z,19.15
2022-11-16T07:32:58.783Z,18.38
2022-11-16T07:35:25.766Z,16.35
2022-11-16T07:37:52.636Z,19.10
2022-11-16T07:40:20.497Z,16.88
2022-11-16T07:42:47.541Z,15.80
2022-11-16T07:45:14.507Z,19.23
2022-11-16T07:47:41.383Z,19.23
2022-11-16T07:50:08.859Z,15.75
2022-11-16T07:52:35.748Z,14.25
2022-11-16T07:55:02.759Z,14.32
2022-11-16T07:57:29.725Z,11.85
2022-11-16T07:59:56.550Z,14.25
2022-11-16T08:02:23.608Z,14.57
2022-11-16T08:04:50.991Z,9.80
2022-11-16T08:07:17.842Z,12.43
2022-11-16T08:09:44.965Z,15.95
2022-11-16T08:12:12.993Z,12.30
2022-11-16T08:14:40.046Z,13.90
2022-11-16T08:17:08.374Z,11.38
2022-11-16T08:19:36.672Z,11.15
2022-11-16T08:22:04.105Z,12.65
2022-11-16T08:24:31.350Z,12.45
2022-11-16T08:26:58.863Z,10.68
2022-11-16T08:29:26.464Z,10.73
2022-11-16T08:31:54.342Z,14.88
2022-11-16T08:34:21.480Z,15.90
2022-11-16T08:36:48.351Z,13.50
2022-11-16T08:39:15.206Z,10.95
2022-11-16T08:41:42.813Z,11.70
2022-11-16T08:44:10.043Z,11.32
2022-11-16T08:46:36.918Z,10.45
2022-11-16T08:49:03.799Z,13.45
2022-11-16T08:51:30.610Z,13.55
2022-11-16T08:53:58.866Z,9.90
2022-11-16T08:56:30.203Z,10.70
2022-11-16T08:58:59.222Z,13.38
2022-11-16T09:01:29.364Z,13.55
2022-11-16T09:03:56.855Z,11.20
2022-11-16T09:06:25.290Z,9.73
2022-11-16T09:08:52.674Z,10.63
2022-11-16T09:11:22.025Z,9.18
2022-11-16T09:13:50.422Z,10.30
2022-11-16T09:16:18.086Z,11.07
2022-11-16T09:18:47.199Z,9.90
2022-11-16T09:21:20.913Z,12.27
2022-11-16T09:23:49.290Z,11.82
2022-11-16T09:26:23.092Z,9.60
2022-11-16T09:29:01.001Z,7.75
2022-11-16T09:31:28.963Z,8.10
2022-11-16T09:33:58.830Z,12.00
2022-11-16T09:36:27.533Z,9.55
2022-11-16T09:39:25.847Z,10.15
2022-11-16T09:42:07.357Z,8.55
2022-11-16T09:44:55.261Z,10.27
2022-11-16T09:47:26.327Z,9.65
2022-11-16T09:50:01.574Z,9.63
2022-11-16T09:52:48.410Z,9.50
2022-11-16T09:55:37.102Z,9.80
2022-11-16T09:58:13.580Z,10.00
2022-11-16T10:00:46.539Z,9.85
2022-11-16T10:03:15.186Z,9.77
2022-11-16T10:05:51.673Z,9.30
2022-11-16T10:08:25.105Z,11.02
2022-11-16T10:11:13.933Z,10.07
2022-11-16T10:14:03.809Z,9.00
2022-11-16T10:16:56.654Z,10.68
2022-11-16T10:19:38.342Z,9.52
2022-11-16T10:22:14.061Z,8.35
2022-11-16T10:24:59.942Z,9.05
2022-11-16T10:27:29.746Z,8.98
2022-11-16T10:29:56.635Z,10.27
2022-11-16T10:32:31.696Z,8.65
2022-11-16T10:35:16.952Z,7.65
2022-11-16T10:37:51.371Z,8.75
2022-11-16T10:40:18.561Z,10.55
2022-11-16T10:42:52.009Z,7.88
2022-11-16T10:45:35.402Z,9.07
2022-11-16T10:48:29.560Z,9.40
2022-11-16T10:50:56.656Z,7.95
2022-11-16T10:53:29.718Z,8.27
2022-11-16T10:56:21.611Z,9.18
2022-11-16T10:59:10.609Z,7.90
2022-11-16T11:01:43.699Z,7.57
2022-11-16T11:04:27.097Z,9.05
2022-11-16T11:07:21.235Z,8.90
2022-11-16T11:09:54.703Z,9.70
2022-11-16T11:12:38.396Z,13.65
2022-11-16T11:15:10.967Z,9.00
2022-11-16T11:17:49.379Z,9.47
2022-11-16T11:20:16.207Z,12.87
2022-11-16T11:22:52.094Z,9.93
2022-11-16T11:25:32.392Z,7.30
2022-11-16T11:28:16.815Z,10.23
2022-11-16T11:31:02.773Z,9.00
2022-11-16T11:33:57.485Z,8.93
2022-11-16T11:36:34.220Z,7.87
2022-11-16T11:39:08.565Z,7.70
2022-11-16T11:41:40.277Z,12.10
2022-11-16T11:44:12.982Z,8.77
2022-11-16T11:47:35.173Z,6.47
2022-11-16T11:49:38.547Z,6.90
2022-11-16T11:52:21.024Z,7.67
2022-11-16T11:54:51.660Z,9.67
2022-11-16T11:57:22.227Z,8.32
2022-11-16T11:59:54.418Z,9.27
2022-11-16T12:02:21.208Z,8.67
2022-11-16T12:05:15.809Z,7.57
2022-11-16T12:08:28.674Z,7.13
2022-11-16T12:11:05.390Z,7.50
2022-11-16T12:14:16.535Z,9.40
2022-11-16T12:16:51.486Z,6.67
2022-11-16T12:19:48.831Z,7.70
2022-11-16T12:22:26.239Z,7.77
2022-11-16T12:25:22.415Z,7.50
2022-11-16T12:27:54.307Z,9.93
2022-11-16T12:30:24.343Z,7.13
2022-11-16T12:32:55.603Z,7.87
2022-11-16T12:35:22.363Z,10.50
2022-11-16T12:38:07.499Z,10.53
2022-11-16T12:40:52.891Z,7.53
2022-11-16T12:43:50.638Z,9.30
2022-11-16T12:46:33.978Z,7.20
2022-11-16T12:49:18.951Z,6.70
2022-11-16T12:52:00.960Z,5.60
2022-11-16T12:55:25.297Z,7.13
2022-11-16T12:57:58.117Z,5.30
2022-11-16T13:00:26.152Z,5.27
2022-11-16T13:03:33.207Z,6.80
2022-11-16T13:06:08.612Z,8.47
2022-11-16T13:09:05.500Z,6.07
2022-11-16T13:11:38.109Z,8.93
2022-11-16T13:14:10.935Z,6.63
2022-11-16T13:16:38.170Z,4.40
2022-11-16T13:19:07.909Z,5.30
2022-11-16T13:21:46.447Z,2.93
2022-11-16T13:24:44.516Z,3.73
2022-11-16T13:27:34.140Z,4.93
2022-11-16T13:30:23.423Z,4.60
2022-11-16T13:33:18.500Z,3.53
2022-11-16T13:35:45.438Z,2.33
2022-11-16T13:38:13.599Z,4.70
2022-11-16T13:40:41.061Z,5.30
2022-11-16T13:43:10.941Z,6.80
2022-11-16T13:45:59.063Z,2.47
2022-11-16T13:48:30.631Z,2.27
2022-11-16T13:51:16.059Z,3.23
2022-11-16T13:56:51.103Z,4.40
2022-11-16T13:59:25.308Z,6.37
2022-11-16T14:01:58.395Z,6.20
2022-11-16T14:05:07.938Z,6.63
2022-11-16T14:07:46.369Z,9.83
2022-11-16T14:10:33.163Z,7.30
2022-11-16T14:13:01.598Z,8.37
2022-11-16T14:15:37.381Z,5.60
2022-11-16T14:18:10.265Z,9.70
2022-11-16T14:20:55.265Z,11.00
2022-11-16T14:23:55.360Z,6.07
2022-11-16T14:26:37.353Z,9.23
2022-11-16T14:29:10.139Z,12.63
2022-11-16T14:31:48.149Z,8.50
2022-11-16T14:34:22.324Z,10.47
2022-11-16T14:36:50.343Z,6.43
2022-11-16T14:39:28.362Z,5.53
2022-11-16T14:41:59.091Z,6.80
2022-11-16T14:44:30.555Z,3.50
2022-11-16T14:46:57.924Z,5.37
2022-11-16T14:49:27.146Z,6.47
2022-11-16T14:51:57.049Z,3.53
2022-11-16T14:54:46.616Z,5.30
2022-11-16T14:57:19.040Z,5.70
2022-11-16T14:59:45.998Z,10.10
2022-11-16T15:02:26.636Z,6.43
2022-11-16T15:04:54.444Z,5.37
2022-11-16T15:07:24.758Z,4.50
2022-11-16T15:09:55.182Z,6.73
2022-11-16T15:12:43.012Z,5.03
2022-11-16T15:15:16.970Z,4.68
2022-11-16T15:17:47.052Z,5.13
2022-11-16T15:20:19.972Z,4.00
2022-11-16T15:22:50.879Z,6.60
2022-11-16T15:25:30.556Z,4.53
2022-11-16T15:27:59.970Z,4.43
2022-11-16T15:30:34.185Z,4.30
2022-11-16T15:33:11.095Z,6.03
2022-11-16T15:35:38.585Z,10.35
2022-11-16T15:38:14.601Z,4.53
2022-11-16T15:40:50.389Z,9.65
2022-11-16T15:43:19.156Z,7.82
2022-11-16T15:45:46.792Z,12.45
2022-11-16T15:48:19.941Z,5.50
2022-11-16T15:51:05.836Z,8.07
2022-11-16T15:53:41.416Z,6.45
2022-11-16T15:56:26.800Z,5.65
2022-11-16T15:59:09.366Z,11.82
2022-11-16T16:01:45.020Z,15.35
2022-11-16T16:04:17.264Z,11.60
2022-11-16T16:07:06.122Z,7.68
2022-11-16T16:09:39.226Z,6.38
2022-11-16T16:12:19.550Z,13.93
2022-11-16T16:14:48.609Z,9.40
2022-11-16T16:17:29.822Z,7.90
2022-11-16T16:20:06.244Z,6.97
2022-11-16T16:22:40.378Z,9.68
2022-11-16T16:25:26.102Z,7.47
2022-11-16T16:27:52.964Z,6.70
2022-11-16T16:30:20.115Z,9.27
2022-11-16T16:32:50.677Z,10.65
2022-11-16T16:35:20.464Z,9.35
2022-11-16T16:37:50.028Z,11.43
2022-11-16T16:40:20.007Z,7.30
2022-11-16T16:42:48.199Z,10.95
2022-11-16T16:45:31.080Z,14.90
2022-11-16T16:47:58.239Z,10.52
2022-11-16T16:50:25.090Z,16.35
2022-11-16T16:52:52.011Z,17.10
2022-11-16T16:55:18.835Z,6.40
2022-11-16T16:57:45.763Z,12.13
2022-11-16T17:00:13.181Z,6.82
2022-11-16T17:02:40.001Z,12.35
2022-11-16T17:05:07.170Z,8.70
2022-11-16T17:07:34.073Z,18.17
2022-11-16T17:10:01.055Z,11.07
2022-11-16T17:12:28.000Z,10.85
2022-11-16T17:14:54.834Z,10.00
2022-11-16T17:17:24.359Z,15.25
2022-11-16T17:19:51.671Z,12.75
2022-11-16T17:22:20.151Z,12.10
2022-11-16T17:24:47.263Z,13.50
2022-11-16T17:27:14.515Z,9.35
2022-11-16T17:29:41.327Z,14.70
2022-11-16T17:32:08.237Z,15.50
2022-11-16T17:34:35.087Z,17.65
2022-11-16T17:37:01.885Z,12.75
2022-11-16T17:39:28.687Z,14.73
2022-11-16T17:41:55.515Z,14.60
2022-11-16T17:44:22.490Z,12.57
2022-11-16T17:46:49.601Z,13.23
2022-11-16T17:49:16.407Z,10.32
2022-11-16T17:51:43.288Z,14.65
2022-11-16T17:54:10.122Z,16.20
2022-11-16T17:56:37.696Z,11.73
2022-11-16T17:59:04.782Z,18.83
2022-11-16T18:01:31.752Z,10.13
2022-11-16T18:04:00.529Z,14.77
2022-11-16T18:06:27.489Z,18.38
2022-11-16T18:08:54.769Z,18.42
2022-11-16T18:11:26.871Z,14.85
2022-11-16T18:13:56.611Z,12.85
2022-11-16T18:16:26.329Z,18.17
2022-11-16T18:18:58.515Z,18.75
2022-11-16T18:21:25.612Z,15.02
2022-11-16T18:23:52.547Z,18.35
2022-11-16T18:26:21.722Z,20.73
2022-11-16T18:28:49.489Z,18.90
2022-11-16T18:31:18.999Z,22.85
2022-11-16T18:33:46.360Z,19.85
2022-11-16T18:36:13.605Z,18.52
2022-11-16T18:38:40.554Z,19.88
2022-11-16T18:41:13.360Z,17.17
2022-11-16T18:43:48.334Z,18.35
2022-11-16T18:46:15.194Z,15.10
2022-11-16T18:48:43.375Z,19.65
2022-11-16T18:51:11.268Z,17.83
2022-11-16T18:53:38.539Z,20.00
2022-11-16T18:56:06.339Z,15.27
2022-11-16T18:58:49.835Z,16.30
2022-11-16T19:01:19.619Z,16.13
2022-11-16T19:03:46.703Z,16.70
2022-11-16T19:06:14.956Z,16.70
2022-11-16T19:08:42.832Z,16.65
2022-11-16T19:11:11.972Z,18.27
2022-11-16T19:13:39.773Z,15.60
2022-11-16T19:16:07.759Z,14.50
2022-11-16T19:18:35.858Z,16.75
2022-11-16T19:21:13.790Z,18.58
2022-11-16T19:23:46.027Z,22.77
2022-11-16T19:26:15.101Z,15.00
2022-11-16T19:28:47.069Z,18.25
2022-11-16T19:31:28.929Z,18.25
2022-11-16T19:34:00.638Z,24.13
2022-11-16T19:36:29.617Z,16.15
2022-11-16T19:38:56.593Z,14.73
2022-11-16T19:41:24.201Z,19.65
2022-11-16T19:43:53.090Z,14.13
2022-11-16T19:46:21.565Z,15.82
2022-11-16T19:48:49.485Z,15.98
2022-11-16T19:51:22.183Z,14.30
2022-11-16T19:53:49.178Z,13.73
2022-11-16T19:56:18.500Z,15.70
2022-11-16T19:58:45.628Z,15.63
2022-11-16T20:01:18.094Z,15.75
2022-11-16T20:03:46.088Z,15.20
2022-11-16T20:06:15.812Z,13.73
2022-11-16T20:08:48.676Z,17.65
2022-11-16T20:11:20.729Z,15.55
2022-11-16T20:13:52.647Z,13.23
2022-11-16T20:16:22.767Z,11.73
2022-11-16T20:18:50.389Z,13.77
2022-11-16T20:21:34.631Z,12.27
2022-11-16T20:24:06.418Z,9.48
2022-11-16T20:26:35.787Z,12.77
2022-11-16T20:29:03.438Z,15.35
2022-11-16T20:31:32.984Z,14.07
2022-11-16T20:34:05.340Z,9.93
2022-11-16T20:36:33.501Z,9.20
2022-11-16T20:39:01.170Z,14.07
2022-11-16T20:41:30.377Z,9.30
2022-11-16T20:43:58.963Z,11.23
2022-11-16T20:46:28.709Z,12.98
2022-11-16T20:48:57.195Z,10.43
2022-11-16T20:51:24.082Z,12.68
2022-11-16T20:53:52.038Z,12.57
2022-11-16T20:56:19.945Z,9.65
2022-11-16T20:58:48.080Z,15.95
2022-11-16T21:01:18.026Z,11.10
2022-11-16T21:03:45.152Z,13.60
2022-11-16T21:06:13.294Z,10.13
2022-11-16T21:08:41.139Z,12.05
2022-11-16T21:11:18.554Z,9.73
2022-11-16T21:14:05.194Z,10.18
2022-11-16T21:16:33.428Z,9.85
2022-11-16T21:19:00.812Z,12.27
2022-11-16T21:21:28.041Z,10.13
2022-11-16T21:23:55.167Z,12.75
2022-11-16T21:26:29.971Z,10.55
2022-11-16T21:28:57.623Z,8.73
2022-11-16T21:31:27.003Z,12.32
2022-11-16T21:33:54.630Z,10.35
2022-11-16T21:36:23.818Z,13.50
2022-11-16T21:38:51.776Z,9.18
2022-11-16T21:41:19.885Z,12.75
2022-11-16T21:43:46.859Z,10.02
2022-11-16T21:46:15.378Z,11.40
2022-11-16T21:48:42.683Z,9.63
2022-11-16T21:51:16.842Z,8.98
2022-11-16T21:53:43.779Z,11.07
2022-11-16T21:56:15.815Z,13.63
2022-11-16T21:58:43.040Z,18.30
2022-11-16T22:01:11.128Z,11.35
2022-11-16T22:03:38.584Z,10.57
2022-11-16T22:06:25.342Z,9.60
2022-11-16T22:08:52.830Z,11.88
2022-11-16T22:11:22.101Z,10.23
2022-11-16T22:13:49.816Z,11.30
2022-11-16T22:16:18.352Z,11.88
2022-11-16T22:18:45.219Z,10.63
2022-11-16T22:21:12.313Z,13.18
2022-11-16T22:23:39.645Z,11.55
2022-11-16T22:26:11.920Z,10.57
2022-11-16T22:28:39.373Z,13.35
2022-11-16T22:31:14.705Z,10.75
2022-11-16T22:33:42.079Z,13.13
2022-11-16T22:36:13.299Z,12.00
2022-11-16T22:38:40.239Z,13.38
2022-11-16T22:41:07.229Z,17.02
2022-11-16T22:43:35.944Z,11.55
2022-11-16T22:46:05.392Z,14.20
2022-11-16T22:48:33.513Z,11.23
2022-11-16T22:51:06.813Z,11.65
2022-11-16T22:53:34.359Z,13.40
2022-11-16T22:56:08.712Z,14.90
2022-11-16T22:58:39.503Z,11.20
2022-11-16T23:01:07.622Z,7.90
2022-11-16T23:03:34.982Z,8.65
2022-11-16T23:06:02.441Z,13.05
2022-11-16T23:08:29.267Z,10.15
2022-11-16T23:11:21.438Z,10.95
2022-11-16T23:14:07.491Z,14.35
2022-11-16T23:16:34.915Z,9.45
2022-11-16T23:19:02.186Z,13.80
2022-11-16T23:21:47.495Z,10.02
2022-11-16T23:24:33.945Z,12.10
2022-11-16T23:27:23.093Z,10.02
2022-11-16T23:29:50.241Z,8.75
2022-11-16T23:32:17.112Z,8.23
2022-11-16T23:34:43.920Z,18.42
2022-11-16T23:37:10.716Z,8.88
2022-11-16T23:39:37.527Z,11.23
2022-11-16T23:42:23.367Z,10.63
2022-11-16T23:44:50.177Z,8.27
2022-11-16T23:47:17.017Z,8.07
2022-11-16T23:49:43.839Z,9.88
2022-11-16T23:52:11.650Z,8.18
2022-11-16T23:54:38.569Z,8.55
2022-11-16T23:57:05.812Z,13.10
2022-11-16T23:59:33.007Z,11.52
